Time;durP1;ratioP1;P1;durP2;ratioP2;P2;SDS_P1;SDS_P2;PMS_P1;PMS_P2;Temp;Humidity;BMP_temperature;BMP_pressure;BME280_temperature;BME280_humidity;BME280_pressure;Samples;Min_cycle;Max_cycle;Signal;HPM_P1;HPM_P2
2022/10/29 00:00:30;;;;;;;;;;;21.50;57.80;;;;;;5055307;28;19921;-61
2022/10/29 00:02:58;;;;;;;;;;;21.50;57.80;;;;;;5067259;28;19920;-62
2022/10/29 00:05:25;;;;;;;;;;;21.50;57.80;;;;;;5063040;28;19938;-62
2022/10/29 00:07:52;;;;;;;;;;;21.50;57.80;;;;;;5070800;28;19956;-61
2022/10/29 00:10:19;;;;;;;;;;;21.50;57.80;;;;;;5072154;28;20283;-61
2022/10/29 00:12:46;;;;;;;;;;;21.50;57.80;;;;;;5062171;28;19951;-62
2022/10/29 00:15:13;;;;;;;;;;;21.50;57.80;;;;;;5049861;28;19921;-62
2022/10/29 00:17:43;;;;;;;;;;;21.50;57.70;;;;;;5051186;28;19920;-61
2022/10/29 00:20:11;;;;;;;;;;;21.50;57.80;;;;;;5057438;28;19948;-61
2022/10/29 00:22:38;;;;;;;;;;;21.50;57.70;;;;;;5062761;28;19924;-62
2022/10/29 00:25:04;;;;;;;;;;;21.50;57.70;;;;;;5052693;28;19921;-62
2022/10/29 00:27:31;;;;;;;;;;;21.50;57.70;;;;;;5065366;28;19925;-61
2022/10/29 00:29:58;;;;;;;;;;;21.50;57.70;;;;;;5038331;28;19935;-61
2022/10/29 00:32:25;;;;;;;;;;;21.50;57.70;;;;;;5063779;28;19920;-61
2022/10/29 00:34:52;;;;;;;;;;;21.50;57.60;;;;;;5049942;28;20034;-62
2022/10/29 00:37:20;;;;;;;;;;;21.50;57.70;;;;;;5033361;28;19921;-62
2022/10/29 00:39:47;;;;;;;;;;;21.40;57.60;;;;;;5065480;28;19925;-62
2022/10/29 00:42:14;;;;;;;;;;;21.50;57.60;;;;;;5070411;28;19933;-61
2022/10/29 00:44:40;;;;;;;;;;;21.40;57.50;;;;;;5058412;28;19927;-62
2022/10/29 00:47:12;;;;;;;;;;;21.40;57.50;;;;;;5052302;28;19920;-62
2022/10/29 00:49:39;;;;;;;;;;;21.40;57.50;;;;;;5049500;28;19982;-61
2022/10/29 00:52:06;;;;;;;;;;;21.40;57.50;;;;;;5054899;28;19921;-61
2022/10/29 00:54:34;;;;;;;;;;;21.40;57.50;;;;;;5069636;28;20019;-61
2022/10/29 00:57:03;;;;;;;;;;;21.40;57.50;;;;;;5032932;28;19956;-61
2022/10/29 00:59:29;;;;;;;;;;;21.40;57.40;;;;;;5050628;28;19959;-63
2022/10/29 01:01:56;;;;;;;;;;;21.40;57.50;;;;;;5045276;28;19921;-62
2022/10/29 01:04:23;;;;;;;;;;;21.40;57.40;;;;;;5054763;28;19930;-61
2022/10/29 01:06:50;;;;;;;;;;;21.40;57.40;;;;;;5052682;28;19921;-61
2022/10/29 01:09:16;;;;;;;;;;;21.40;57.40;;;;;;5064867;28;20028;-62
2022/10/29 01:11:48;;;;;;;;;;;21.40;57.40;;;;;;5067591;28;19966;-61
2022/10/29 01:14:16;;;;;;;;;;;21.40;57.30;;;;;;5068187;28;20016;-62
2022/10/29 01:16:45;;;;;;;;;;;21.40;57.30;;;;;;5055204;28;19966;-62
2022/10/29 01:19:13;;;;;;;;;;;21.40;57.30;;;;;;5055622;28;19922;-62
2022/10/29 01:21:41;;;;;;;;;;;21.40;57.30;;;;;;5049468;28;19924;-62
2022/10/29 01:24:21;;;;;;;;;;;21.40;57.30;;;;;;5051891;28;19921;-61
2022/10/29 01:26:57;;;;;;;;;;;21.40;57.30;;;;;;5050104;28;19956;-61
2022/10/29 01:29:28;;;;;;;;;;;21.40;57.30;;;;;;5061436;28;19960;-61
2022/10/29 01:31:56;;;;;;;;;;;21.40;57.30;;;;;;5051853;28;19924;-62
2022/10/29 01:34:24;;;;;;;;;;;21.40;57.30;;;;;;5069991;28;20031;-61
2022/10/29 01:36:53;;;;;;;;;;;21.40;57.30;;;;;;5052339;28;19970;-62
2022/10/29 01:39:20;;;;;;;;;;;21.40;57.30;;;;;;5040639;28;20015;-62
2022/10/29 01:41:49;;;;;;;;;;;21.40;57.30;;;;;;5056059;28;20047;-61
2022/10/29 01:44:19;;;;;;;;;;;21.40;57.20;;;;;;5054105;28;19920;-62
2022/10/29 01:46:49;;;;;;;;;;;21.40;57.30;;;;;;5050763;28;19954;-61
2022/10/29 01:49:17;;;;;;;;;;;21.40;57.20;;;;;;5060069;28;19925;-61
2022/10/29 01:51:44;;;;;;;;;;;21.40;57.20;;;;;;5070425;28;20110;-62
2022/10/29 01:54:12;;;;;;;;;;;21.40;57.20;;;;;;5074150;28;20011;-61
2022/10/29 01:56:39;;;;;;;;;;;21.40;57.20;;;;;;5060549;28;20019;-61
2022/10/29 01:59:07;;;;;;;;;;;21.40;57.20;;;;;;5052971;28;19925;-61
2022/10/29 02:01:36;;;;;;;;;;;21.30;57.10;;;;;;5046268;28;19960;-62
2022/10/29 02:04:07;;;;;;;;;;;21.30;57.00;;;;;;5056744;28;19974;-62
2022/10/29 02:06:39;;;;;;;;;;;21.40;57.20;;;;;;5061895;28;19924;-62
2022/10/29 02:09:10;;;;;;;;;;;21.30;57.00;;;;;;5067366;28;19929;-62
2022/10/29 02:11:40;;;;;;;;;;;21.30;57.00;;;;;;5072881;28;19920;-62
2022/10/29 02:14:07;;;;;;;;;;;21.30;57.00;;;;;;5073756;28;19955;-62
2022/10/29 02:16:34;;;;;;;;;;;21.30;57.00;;;;;;5040882;28;20011;-62
2022/10/29 02:19:04;;;;;;;;;;;21.30;57.00;;;;;;5037726;28;19921;-62
2022/10/29 02:21:30;;;;;;;;;;;21.30;57.00;;;;;;5053763;28;19970;-62
2022/10/29 02:23:58;;;;;;;;;;;21.30;57.00;;;;;;5041449;28;20011;-62
2022/10/29 02:26:28;;;;;;;;;;;21.30;57.00;;;;;;5073891;28;19928;-62
2022/10/29 02:28:55;;;;;;;;;;;21.30;57.00;;;;;;5064768;28;20020;-63
2022/10/29 02:31:21;;;;;;;;;;;21.30;57.00;;;;;;5047790;28;20007;-63
2022/10/29 02:33:48;;;;;;;;;;;21.30;57.00;;;;;;5062292;28;19951;-63
2022/10/29 02:36:15;;;;;;;;;;;21.30;57.00;;;;;;5070466;28;19921;-62
2022/10/29 02:38:42;;;;;;;;;;;21.30;57.00;;;;;;5064986;28;19985;-62
2022/10/29 02:41:13;;;;;;;;;;;21.30;57.00;;;;;;5054571;28;20247;-62
2022/10/29 02:43:39;;;;;;;;;;;21.30;57.00;;;;;;5038493;28;19927;-63
2022/10/29 02:46:09;;;;;;;;;;;21.30;57.00;;;;;;5062213;28;19967;-62
2022/10/29 02:48:36;;;;;;;;;;;21.30;57.00;;;;;;5058758;28;19952;-62
2022/10/29 02:51:03;;;;;;;;;;;21.30;57.00;;;;;;5051730;28;20404;-62
2022/10/29 02:53:30;;;;;;;;;;;21.30;56.90;;;;;;5052001;28;20457;-62
2022/10/29 02:55:56;;;;;;;;;;;21.30;56.90;;;;;;5071471;28;19963;-62
2022/10/29 02:58:24;;;;;;;;;;;21.30;56.90;;;;;;5040161;28;19927;-62
2022/10/29 03:00:51;;;;;;;;;;;21.30;56.90;;;;;;5065849;28;19947;-62
2022/10/29 03:03:18;;;;;;;;;;;21.30;56.90;;;;;;5035726;28;19921;-62
2022/10/29 03:05:45;;;;;;;;;;;21.30;56.90;;;;;;5051290;28;19924;-62
2022/10/29 03:08:11;;;;;;;;;;;21.30;56.90;;;;;;5051484;28;19943;-62
2022/10/29 03:10:38;;;;;;;;;;;21.30;56.90;;;;;;5061003;28;20325;-62
2022/10/29 03:13:05;;;;;;;;;;;21.30;56.90;;;;;;5049821;28;19974;-62
2022/10/29 03:15:33;;;;;;;;;;;21.30;56.90;;;;;;5038324;28;19960;-62
2022/10/29 03:17:59;;;;;;;;;;;21.30;56.80;;;;;;5034606;28;19967;-62
2022/10/29 03:20:26;;;;;;;;;;;21.30;56.80;;;;;;5053202;28;20038;-62
2022/10/29 03:22:53;;;;;;;;;;;21.20;56.70;;;;;;5054074;28;19920;-62
2022/10/29 03:25:20;;;;;;;;;;;21.20;56.70;;;;;;5069286;28;20015;-62
2022/10/29 03:27:47;;;;;;;;;;;21.20;56.70;;;;;;5052151;28;19920;-62
2022/10/29 03:30:15;;;;;;;;;;;21.20;56.70;;;;;;5053101;28;19921;-62
2022/10/29 03:32:44;;;;;;;;;;;21.20;56.70;;;;;;5070886;28;19920;-62
2022/10/29 03:35:11;;;;;;;;;;;21.20;56.70;;;;;;5061541;28;19924;-62
2022/10/29 03:37:38;;;;;;;;;;;21.20;56.70;;;;;;5052765;28;20451;-63
2022/10/29 03:40:05;;;;;;;;;;;21.20;56.70;;;;;;5052712;28;19921;-62
2022/10/29 03:42:32;;;;;;;;;;;21.20;56.70;;;;;;5052086;28;19982;-63
2022/10/29 03:44:58;;;;;;;;;;;21.20;56.60;;;;;;5043885;28;19920;-62
2022/10/29 03:47:25;;;;;;;;;;;21.20;56.70;;;;;;5055460;28;20018;-63
2022/10/29 03:49:53;;;;;;;;;;;21.20;56.60;;;;;;5071649;28;19928;-63
2022/10/29 03:52:20;;;;;;;;;;;21.20;56.60;;;;;;5066819;28;19920;-63
2022/10/29 03:54:46;;;;;;;;;;;21.20;56.60;;;;;;5067894;28;19928;-63
2022/10/29 03:57:13;;;;;;;;;;;21.20;56.60;;;;;;5064677;28;19955;-62
2022/10/29 03:59:40;;;;;;;;;;;21.20;56.60;;;;;;5049434;28;19989;-62
2022/10/29 04:02:07;;;;;;;;;;;21.20;56.60;;;;;;5065523;28;19954;-63
2022/10/29 04:04:34;;;;;;;;;;;21.20;56.50;;;;;;5052273;28;19970;-63
2022/10/29 04:07:02;;;;;;;;;;;21.20;56.50;;;;;;5053768;28;20326;-63
2022/10/29 04:09:28;;;;;;;;;;;21.20;56.50;;;;;;5048871;28;19971;-63
2022/10/29 04:11:55;;;;;;;;;;;21.20;56.50;;;;;;5067085;28;19925;-62
2022/10/29 04:14:22;;;;;;;;;;;21.20;56.40;;;;;;5053190;28;20416;-63
2022/10/29 04:16:48;;;;;;;;;;;21.20;56.50;;;;;;5060930;28;19920;-63
2022/10/29 04:19:15;;;;;;;;;;;21.20;56.50;;;;;;5034959;28;19994;-62
2022/10/29 04:21:42;;;;;;;;;;;21.20;56.50;;;;;;5062073;28;19920;-62
2022/10/29 04:24:10;;;;;;;;;;;21.20;56.40;;;;;;5057488;28;20317;-63
2022/10/29 04:26:37;;;;;;;;;;;21.20;56.40;;;;;;5053572;28;19959;-62
2022/10/29 04:29:03;;;;;;;;;;;21.20;56.40;;;;;;5046323;28;19948;-63
2022/10/29 04:31:30;;;;;;;;;;;21.20;56.40;;;;;;5069674;28;20401;-62
2022/10/29 04:33:57;;;;;;;;;;;21.20;56.40;;;;;;5053066;28;19928;-63
2022/10/29 04:36:24;;;;;;;;;;;21.20;56.40;;;;;;5052882;28;19920;-62
2022/10/29 04:38:50;;;;;;;;;;;21.20;56.90;;;;;;5069553;28;19924;-63
2022/10/29 04:41:18;;;;;;;;;;;21.20;56.40;;;;;;5057699;28;19966;-62
2022/10/29 04:43:45;;;;;;;;;;;21.20;56.30;;;;;;5034771;28;20326;-61
2022/10/29 04:46:12;;;;;;;;;;;21.20;56.30;;;;;;5049660;28;20011;-61
2022/10/29 04:48:38;;;;;;;;;;;21.20;56.30;;;;;;5049351;28;19967;-62
2022/10/29 04:51:05;;;;;;;;;;;21.20;56.30;;;;;;5056789;28;19920;-62
2022/10/29 04:53:32;;;;;;;;;;;21.20;56.30;;;;;;5051290;28;19973;-61
2022/10/29 04:55:59;;;;;;;;;;;21.20;56.30;;;;;;5070698;28;20455;-62
2022/10/29 04:58:27;;;;;;;;;;;21.10;56.70;;;;;;5052828;28;20066;-62
2022/10/29 05:00:54;;;;;;;;;;;21.10;56.20;;;;;;5050289;28;20028;-62
2022/10/29 05:03:21;;;;;;;;;;;21.10;56.10;;;;;;5049224;28;20013;-62
2022/10/29 05:05:47;;;;;;;;;;;21.10;56.10;;;;;;5058215;28;20024;-62
2022/10/29 05:08:14;;;;;;;;;;;21.10;56.10;;;;;;5032733;28;19921;-62
2022/10/29 05:10:41;;;;;;;;;;;21.10;56.10;;;;;;5037368;28;20270;-62
2022/10/29 05:13:09;;;;;;;;;;;21.10;56.10;;;;;;5070087;28;19959;-61
2022/10/29 05:15:37;;;;;;;;;;;21.10;56.10;;;;;;5052119;28;20023;-61
2022/10/29 05:18:04;;;;;;;;;;;21.10;56.10;;;;;;5069201;28;20374;-61
2022/10/29 05:20:31;;;;;;;;;;;21.10;56.10;;;;;;5067806;28;20015;-61
2022/10/29 05:22:58;;;;;;;;;;;21.10;56.10;;;;;;5069235;28;19960;-61
2022/10/29 05:25:25;;;;;;;;;;;21.10;56.10;;;;;;5066630;28;19974;-61
2022/10/29 05:27:57;;;;;;;;;;;21.10;56.70;;;;;;5042898;28;19950;-62
2022/10/29 05:30:24;;;;;;;;;;;21.10;56.10;;;;;;5049493;28;20023;-62
2022/10/29 05:32:52;;;;;;;;;;;21.10;56.10;;;;;;5065286;28;20049;-62
2022/10/29 05:35:19;;;;;;;;;;;21.10;56.10;;;;;;5031872;28;19966;-61
2022/10/29 05:37:50;;;;;;;;;;;21.10;56.10;;;;;;5032257;28;20024;-62
2022/10/29 05:40:16;;;;;;;;;;;21.10;56.10;;;;;;5035593;28;19970;-62
2022/10/29 05:42:43;;;;;;;;;;;21.10;56.10;;;;;;5032255;28;20010;-61
2022/10/29 05:45:10;;;;;;;;;;;21.10;56.10;;;;;;5041561;28;19920;-61
2022/10/29 05:47:37;;;;;;;;;;;21.10;56.10;;;;;;5032354;28;19960;-61
2022/10/29 05:50:06;;;;;;;;;;;21.10;56.10;;;;;;5051820;28;19993;-61
2022/10/29 05:52:33;;;;;;;;;;;21.10;56.10;;;;;;5068015;28;19959;-61
2022/10/29 05:54:59;;;;;;;;;;;21.10;56.10;;;;;;5037161;28;19958;-61
2022/10/29 05:57:27;;;;;;;;;;;21.10;56.10;;;;;;5041928;28;19920;-61
2022/10/29 05:59:53;;;;;;;;;;;21.10;56.10;;;;;;5039795;28;19920;-61
2022/10/29 06:02:20;;;;;;;;;;;21.10;56.00;;;;;;5064465;28;19970;-61
2022/10/29 06:04:47;;;;;;;;;;;21.10;56.00;;;;;;5037059;28;19925;-62
2022/10/29 06:07:15;;;;;;;;;;;21.10;56.00;;;;;;5046190;28;19967;-61
2022/10/29 06:09:41;;;;;;;;;;;21.10;56.00;;;;;;5040477;28;20015;-61
2022/10/29 06:12:08;;;;;;;;;;;21.10;56.00;;;;;;5038401;28;19921;-61
2022/10/29 06:14:35;;;;;;;;;;;21.10;56.00;;;;;;5041605;28;19920;-62
2022/10/29 06:17:02;;;;;;;;;;;21.10;56.00;;;;;;5044042;28;19971;-62
2022/10/29 06:19:29;;;;;;;;;;;21.10;55.90;;;;;;5046714;28;19983;-62
2022/10/29 06:21:55;;;;;;;;;;;21.10;55.90;;;;;;5056466;28;19924;-62
2022/10/29 06:24:24;;;;;;;;;;;21.10;55.90;;;;;;5057995;28;20011;-62
2022/10/29 06:26:52;;;;;;;;;;;21.10;55.90;;;;;;5051955;28;19937;-59
2022/10/29 06:29:19;;;;;;;;;;;21.10;55.80;;;;;;5048247;28;19956;-59
2022/10/29 06:31:46;;;;;;;;;;;21.10;55.80;;;;;;5037254;28;20014;-60
2022/10/29 06:34:13;;;;;;;;;;;21.10;55.90;;;;;;5066151;28;20055;-61
2022/10/29 06:36:40;;;;;;;;;;;21.10;55.80;;;;;;5053066;28;19921;-60
2022/10/29 06:39:07;;;;;;;;;;;21.10;55.80;;;;;;5063117;28;19928;-60
2022/10/29 06:41:35;;;;;;;;;;;21.00;55.70;;;;;;5048098;28;20002;-60
2022/10/29 06:44:02;;;;;;;;;;;21.00;55.70;;;;;;5047560;28;19924;-60
2022/10/29 06:46:29;;;;;;;;;;;21.00;55.60;;;;;;5060577;28;20019;-61
2022/10/29 06:48:56;;;;;;;;;;;21.00;55.60;;;;;;5066876;28;20405;-61
2022/10/29 06:51:23;;;;;;;;;;;21.00;55.60;;;;;;5063376;28;19927;-61
2022/10/29 06:53:49;;;;;;;;;;;21.00;55.60;;;;;;5045870;28;19951;-61
2022/10/29 06:56:16;;;;;;;;;;;21.00;55.60;;;;;;5053129;28;19974;-61
2022/10/29 06:58:44;;;;;;;;;;;21.00;55.60;;;;;;5052240;28;20015;-61
2022/10/29 07:01:11;;;;;;;;;;;21.00;55.60;;;;;;5063488;28;19947;-61
2022/10/29 07:03:37;;;;;;;;;;;21.00;55.60;;;;;;5036325;28;19929;-61
2022/10/29 07:06:04;;;;;;;;;;;21.00;55.60;;;;;;5052692;28;19920;-61
2022/10/29 07:08:32;;;;;;;;;;;21.00;55.60;;;;;;5040495;28;19967;-61
2022/10/29 07:10:58;;;;;;;;;;;21.00;55.60;;;;;;5047959;28;19928;-61
2022/10/29 07:13:25;;;;;;;;;;;21.10;55.70;;;;;;5063802;28;19921;-61
2022/10/29 07:15:53;;;;;;;;;;;21.00;55.60;;;;;;5059506;28;19920;-61
2022/10/29 07:18:20;;;;;;;;;;;21.00;55.70;;;;;;5056018;28;19927;-61
2022/10/29 07:20:47;;;;;;;;;;;21.00;55.70;;;;;;5060786;28;19925;-62
2022/10/29 07:23:13;;;;;;;;;;;21.00;55.70;;;;;;5037010;28;20023;-62
2022/10/29 07:25:40;;;;;;;;;;;21.00;55.70;;;;;;5062002;28;19920;-61
2022/10/29 07:28:07;;;;;;;;;;;21.00;55.70;;;;;;5060863;28;20014;-62
2022/10/29 07:30:34;;;;;;;;;;;21.00;55.70;;;;;;5055441;28;20066;-61
2022/10/29 07:33:02;;;;;;;;;;;21.00;55.70;;;;;;5072396;28;20019;-62
2022/10/29 07:35:29;;;;;;;;;;;21.00;55.80;;;;;;5053859;28;19974;-61
2022/10/29 07:37:58;;;;;;;;;;;21.00;55.80;;;;;;5048821;28;20011;-61
2022/10/29 07:40:25;;;;;;;;;;;21.00;55.80;;;;;;5067925;28;19920;-61
2022/10/29 07:42:51;;;;;;;;;;;21.00;55.70;;;;;;5060796;28;20090;-63
2022/10/29 07:45:18;;;;;;;;;;;21.00;55.80;;;;;;5054500;28;19971;-61
2022/10/29 07:47:45;;;;;;;;;;;21.00;55.80;;;;;;5056107;28;19962;-61
2022/10/29 07:50:13;;;;;;;;;;;21.00;55.80;;;;;;5053387;28;19927;-61
2022/10/29 07:52:40;;;;;;;;;;;21.00;55.80;;;;;;5060425;28;19920;-61
2022/10/29 07:55:07;;;;;;;;;;;21.00;55.80;;;;;;5058155;28;19928;-61
2022/10/29 07:57:33;;;;;;;;;;;21.00;55.80;;;;;;5066248;28;19972;-61
2022/10/29 08:00:00;;;;;;;;;;;21.00;55.80;;;;;;5071983;28;19956;-61
2022/10/29 08:02:27;;;;;;;;;;;21.00;55.80;;;;;;5070187;28;19921;-61
2022/10/29 08:04:54;;;;;;;;;;;21.00;55.80;;;;;;5061271;28;19920;-62
2022/10/29 08:07:22;;;;;;;;;;;21.00;55.80;;;;;;5069048;28;19935;-62
2022/10/29 08:09:48;;;;;;;;;;;21.00;55.80;;;;;;5066428;28;19928;-62
2022/10/29 08:12:15;;;;;;;;;;;21.10;55.90;;;;;;5068682;28;19974;-62
2022/10/29 08:14:42;;;;;;;;;;;21.00;55.80;;;;;;5052677;28;19974;-61
2022/10/29 08:17:08;;;;;;;;;;;21.00;55.80;;;;;;5070264;28;19925;-62
2022/10/29 08:19:35;;;;;;;;;;;21.10;55.90;;;;;;5068758;28;19927;-62
2022/10/29 08:22:02;;;;;;;;;;;21.10;55.90;;;;;;5052221;28;20016;-62
2022/10/29 08:24:30;;;;;;;;;;;21.10;55.90;;;;;;5065761;28;19940;-62
2022/10/29 08:26:57;;;;;;;;;;;21.10;55.90;;;;;;5048665;28;20015;-62
2022/10/29 08:29:23;;;;;;;;;;;21.10;55.90;;;;;;5068767;28;19920;-62
2022/10/29 08:31:50;;;;;;;;;;;21.10;56.00;;;;;;5061867;28;19920;-62
2022/10/29 08:34:17;;;;;;;;;;;21.10;55.90;;;;;;5052228;28;19921;-62
2022/10/29 08:36:45;;;;;;;;;;;21.00;55.90;;;;;;5071017;28;20019;-61
2022/10/29 08:39:11;;;;;;;;;;;21.00;55.90;;;;;;5053188;28;19940;-61
2022/10/29 08:41:43;;;;;;;;;;;21.00;55.90;;;;;;5049924;28;19921;-61
2022/10/29 08:44:20;;;;;;;;;;;21.00;56.00;;;;;;5044932;28;19928;-62
2022/10/29 08:46:47;;;;;;;;;;;21.00;56.00;;;;;;5059174;28;19985;-62
2022/10/29 08:49:15;;;;;;;;;;;21.00;56.10;;;;;;5050696;28;19999;-62
2022/10/29 08:51:42;;;;;;;;;;;21.00;56.10;;;;;;5049719;28;19927;-62
2022/10/29 08:54:11;;;;;;;;;;;21.00;56.20;;;;;;5051548;28;19928;-62
2022/10/29 08:56:38;;;;;;;;;;;20.90;56.10;;;;;;5062131;28;19961;-62
2022/10/29 08:59:11;;;;;;;;;;;20.90;56.10;;;;;;5059922;28;19921;-63
2022/10/29 09:01:38;;;;;;;;;;;20.90;56.10;;;;;;5057887;28;19926;-62
2022/10/29 09:04:10;;;;;;;;;;;21.00;56.20;;;;;;5048536;28;19920;-62
2022/10/29 09:06:38;;;;;;;;;;;21.00;56.20;;;;;;5058409;28;19921;-62
2022/10/29 09:09:19;;;;;;;;;;;21.00;56.20;;;;;;5050306;28;19928;-62
2022/10/29 09:11:54;;;;;;;;;;;21.00;56.20;;;;;;5059943;28;19921;-62
2022/10/29 09:14:27;;;;;;;;;;;21.00;56.20;;;;;;5067668;28;19963;-61
2022/10/29 09:16:55;;;;;;;;;;;21.00;56.20;;;;;;5051013;28;19927;-62
2022/10/29 09:19:26;;;;;;;;;;;21.00;56.20;;;;;;5045427;28;19924;-62
2022/10/29 09:21:55;;;;;;;;;;;21.00;56.20;;;;;;5049875;28;19970;-62
2022/10/29 09:24:23;;;;;;;;;;;21.00;56.20;;;;;;5051330;28;19920;-62
2022/10/29 09:26:53;;;;;;;;;;;21.00;56.20;;;;;;5067526;28;19946;-62
2022/10/29 09:29:26;;;;;;;;;;;21.00;56.20;;;;;;5068119;28;19921;-62
2022/10/29 09:31:53;;;;;;;;;;;21.00;56.30;;;;;;5057394;28;20015;-62
2022/10/29 09:34:23;;;;;;;;;;;21.00;56.30;;;;;;5046875;28;19978;-61
2022/10/29 09:36:50;;;;;;;;;;;21.00;56.30;;;;;;5049105;28;19948;-62
2022/10/29 09:39:19;;;;;;;;;;;21.10;56.40;;;;;;5059117;28;20023;-62
2022/10/29 09:41:46;;;;;;;;;;;21.10;56.40;;;;;;5064699;28;19920;-62
2022/10/29 09:44:16;;;;;;;;;;;21.10;56.40;;;;;;5033167;28;20286;-61
2022/10/29 09:46:45;;;;;;;;;;;21.10;56.40;;;;;;5067043;28;19947;-62
2022/10/29 09:49:15;;;;;;;;;;;21.10;56.50;;;;;;5064955;28;19944;-62
2022/10/29 09:51:42;;;;;;;;;;;21.10;56.40;;;;;;5044720;28;19920;-63
2022/10/29 09:54:09;;;;;;;;;;;21.10;56.50;;;;;;5052564;28;19928;-63
2022/10/29 09:56:38;;;;;;;;;;;21.10;56.40;;;;;;5063506;28;20329;-61
2022/10/29 09:59:08;;;;;;;;;;;21.10;56.40;;;;;;5063333;28;19948;-62
2022/10/29 10:01:35;;;;;;;;;;;21.10;56.50;;;;;;5054934;28;19981;-62
2022/10/29 10:04:06;;;;;;;;;;;21.10;56.50;;;;;;5038801;28;19982;-62
2022/10/29 10:06:33;;;;;;;;;;;21.10;57.10;;;;;;5054456;28;19921;-62
2022/10/29 10:09:00;;;;;;;;;;;21.10;56.50;;;;;;5072885;28;19977;-62
2022/10/29 10:11:27;;;;;;;;;;;21.10;56.60;;;;;;5055327;28;19920;-62
2022/10/29 10:13:56;;;;;;;;;;;21.10;56.60;;;;;;5054418;28;19968;-61
2022/10/29 10:16:25;;;;;;;;;;;21.10;56.60;;;;;;5035264;28;19967;-62
2022/10/29 10:18:52;;;;;;;;;;;21.10;56.70;;;;;;5051465;28;20000;-61
2022/10/29 10:21:25;;;;;;;;;;;21.10;56.70;;;;;;5051774;28;20332;-62
2022/10/29 10:23:52;;;;;;;;;;;21.10;56.70;;;;;;5054974;28;20002;-62
2022/10/29 10:26:29;;;;;;;;;;;21.10;56.80;;;;;;5054892;28;19993;-62
2022/10/29 10:29:20;;;;;;;;;;;21.10;56.80;;;;;;5036683;28;19925;-62
2022/10/29 10:31:47;;;;;;;;;;;21.10;56.90;;;;;;5046500;28;20305;-62
2022/10/29 10:34:15;;;;;;;;;;;21.10;56.90;;;;;;5052552;28;20020;-62
2022/10/29 10:36:43;;;;;;;;;;;21.10;56.90;;;;;;5054897;28;19924;-62
2022/10/29 10:39:18;;;;;;;;;;;21.10;57.00;;;;;;5063192;28;19997;-61
2022/10/29 10:41:45;;;;;;;;;;;21.10;56.90;;;;;;5070613;28;20010;-62
2022/10/29 10:44:13;;;;;;;;;;;21.10;56.90;;;;;;5046415;28;19920;-63
2022/10/29 10:46:41;;;;;;;;;;;21.10;57.00;;;;;;5043804;28;19928;-63
2022/10/29 10:49:12;;;;;;;;;;;21.10;57.00;;;;;;5048867;28;19974;-63
2022/10/29 10:51:39;;;;;;;;;;;21.10;57.00;;;;;;5050615;28;19989;-63
2022/10/29 10:54:23;;;;;;;;;;;21.20;57.10;;;;;;5069979;28;19924;-63
2022/10/29 10:56:56;;;;;;;;;;;21.20;57.10;;;;;;5064987;28;19925;-63
2022/10/29 10:59:23;;;;;;;;;;;21.20;57.20;;;;;;5042517;28;19960;-63
2022/10/29 11:01:49;;;;;;;;;;;21.20;57.20;;;;;;5062275;28;19924;-63
2022/10/29 11:04:17;;;;;;;;;;;21.20;57.30;;;;;;5051400;28;19921;-63
2022/10/29 11:06:44;;;;;;;;;;;21.20;57.30;;;;;;5042543;28;19927;-64
2022/10/29 11:09:14;;;;;;;;;;;21.20;57.40;;;;;;5049953;28;19930;-63
2022/10/29 11:11:42;;;;;;;;;;;21.20;57.40;;;;;;5061796;28;19920;-63
2022/10/29 11:14:10;;;;;;;;;;;21.20;57.40;;;;;;5059270;28;19920;-64
2022/10/29 11:16:38;;;;;;;;;;;21.20;57.40;;;;;;5057654;28;19927;-63
2022/10/29 11:19:05;;;;;;;;;;;21.20;57.50;;;;;;5048438;28;19921;-62
2022/10/29 11:21:33;;;;;;;;;;;21.20;57.50;;;;;;5065674;28;20375;-63
2022/10/29 11:24:01;;;;;;;;;;;21.20;57.40;;;;;;5045351;28;19929;-63
2022/10/29 11:26:30;;;;;;;;;;;21.20;57.40;;;;;;5052293;28;20023;-62
2022/10/29 11:28:58;;;;;;;;;;;21.20;57.40;;;;;;5042555;28;19986;-63
2022/10/29 11:31:25;;;;;;;;;;;21.20;57.40;;;;;;5049283;28;19920;-63
2022/10/29 11:33:54;;;;;;;;;;;21.20;57.40;;;;;;5061945;28;20051;-64
2022/10/29 11:36:21;;;;;;;;;;;21.20;57.30;;;;;;5059613;28;19971;-64
2022/10/29 11:38:49;;;;;;;;;;;21.20;57.30;;;;;;5067508;28;20329;-63
2022/10/29 11:41:18;;;;;;;;;;;21.20;57.20;;;;;;5035787;28;19974;-64
2022/10/29 11:43:47;;;;;;;;;;;21.20;57.20;;;;;;5056234;28;19921;-63
2022/10/29 11:46:16;;;;;;;;;;;21.20;57.20;;;;;;5048466;28;19998;-69
2022/10/29 11:48:46;;;;;;;;;;;21.20;57.10;;;;;;5059147;28;19920;-69
2022/10/29 11:51:16;;;;;;;;;;;21.20;57.10;;;;;;5056678;28;19966;-75
2022/10/29 11:54:06;;;;;;;;;;;21.20;57.10;;;;;;5055023;28;19920;-72
2022/10/29 11:56:37;;;;;;;;;;;21.30;57.20;;;;;;5034108;28;19951;-71
2022/10/29 11:59:06;;;;;;;;;;;21.30;57.20;;;;;;5054497;28;19920;-71
2022/10/29 12:01:35;;;;;;;;;;;21.30;57.20;;;;;;5068459;28;19955;-71
2022/10/29 12:04:06;;;;;;;;;;;21.30;57.10;;;;;;5058590;28;19924;-66
2022/10/29 12:06:35;;;;;;;;;;;21.30;57.20;;;;;;5075848;28;19921;-69
2022/10/29 12:09:06;;;;;;;;;;;21.30;57.20;;;;;;5058310;28;19924;-73
2022/10/29 12:11:35;;;;;;;;;;;21.30;57.20;;;;;;5052377;28;19956;-74
2022/10/29 12:14:04;;;;;;;;;;;21.30;57.20;;;;;;5062084;28;19920;-67
2022/10/29 12:16:38;;;;;;;;;;;21.30;57.30;;;;;;5046401;28;20378;-65
2022/10/29 12:19:07;;;;;;;;;;;21.30;57.30;;;;;;5070440;28;19966;-64
2022/10/29 12:21:35;;;;;;;;;;;21.30;57.40;;;;;;5061135;28;19920;-65
2022/10/29 12:24:06;;;;;;;;;;;21.30;57.40;;;;;;5074934;28;20366;-64
2022/10/29 12:26:34;;;;;;;;;;;21.30;57.40;;;;;;5073273;28;19920;-64
2022/10/29 12:29:03;;;;;;;;;;;21.30;57.40;;;;;;5053839;28;19925;-65
2022/10/29 12:31:30;;;;;;;;;;;21.30;57.40;;;;;;5042618;28;20459;-74
2022/10/29 12:34:01;;;;;;;;;;;21.40;57.50;;;;;;5059015;28;19920;-73
2022/10/29 12:36:29;;;;;;;;;;;21.40;57.60;;;;;;5042690;28;19920;-68
2022/10/29 12:38:56;;;;;;;;;;;21.40;57.50;;;;;;5054380;28;19921;-70
2022/10/29 12:41:24;;;;;;;;;;;21.40;57.50;;;;;;5037955;28;20011;-67
2022/10/29 12:43:50;;;;;;;;;;;21.40;57.50;;;;;;5051482;28;19925;-70
2022/10/29 12:46:19;;;;;;;;;;;21.40;57.50;;;;;;5036716;28;20350;-68
2022/10/29 12:48:48;;;;;;;;;;;21.40;57.40;;;;;;5040938;28;19921;-69
2022/10/29 12:51:17;;;;;;;;;;;21.40;57.40;;;;;;5043149;28;19990;-67
2022/10/29 12:53:44;;;;;;;;;;;21.40;57.40;;;;;;5049387;28;20440;-69
2022/10/29 12:56:11;;;;;;;;;;;21.40;57.40;;;;;;5054116;28;19924;-70
2022/10/29 12:58:45;;;;;;;;;;;21.40;57.30;;;;;;5048050;28;19963;-70
2022/10/29 13:01:29;;;;;;;;;;;21.40;57.40;;;;;;5054244;28;19967;-69
2022/10/29 13:03:58;;;;;;;;;;;21.50;57.50;;;;;;5048561;28;20389;-72
2022/10/29 13:06:46;;;;;;;;;;;21.50;57.60;;;;;;5062829;28;20408;-68
2022/10/29 13:09:17;;;;;;;;;;;21.50;57.60;;;;;;5044225;28;19927;-65
2022/10/29 13:11:46;;;;;;;;;;;21.50;57.60;;;;;;5048814;28;19928;-68
2022/10/29 13:14:13;;;;;;;;;;;21.50;57.60;;;;;;5051060;28;19970;-70
2022/10/29 13:16:39;;;;;;;;;;;21.50;57.60;;;;;;5054830;28;19921;-73
2022/10/29 13:19:08;;;;;;;;;;;21.50;57.60;;;;;;5054689;28;19921;-75
2022/10/29 13:21:53;;;;;;;;;;;21.50;57.50;;;;;;5053381;28;19924;-68
2022/10/29 13:24:21;;;;;;;;;;;21.50;57.50;;;;;;5037107;28;19963;-74
2022/10/29 13:26:58;;;;;;;;;;;21.50;57.60;;;;;;5047866;28;19920;-73
2022/10/29 13:29:47;;;;;;;;;;;21.50;57.70;;;;;;5042884;28;19921;-72
2022/10/29 13:32:30;;;;;;;;;;;21.50;57.70;;;;;;5060149;28;19986;-68
2022/10/29 13:34:57;;;;;;;;;;;21.50;57.80;;;;;;5037313;28;19921;-74
2022/10/29 13:37:37;;;;;;;;;;;21.60;58.00;;;;;;5053922;28;19921;-73
2022/10/29 13:40:24;;;;;;;;;;;21.60;58.00;;;;;;5059061;28;20382;-75
2022/10/29 13:42:55;;;;;;;;;;;21.60;58.00;;;;;;5055843;28;19963;-71
2022/10/29 13:45:22;;;;;;;;;;;21.60;58.00;;;;;;5050580;28;20015;-72
2022/10/29 13:47:49;;;;;;;;;;;21.60;58.00;;;;;;5051146;28;19920;-72
2022/10/29 13:50:15;;;;;;;;;;;21.60;58.00;;;;;;5058165;28;19994;-67
2022/10/29 13:52:42;;;;;;;;;;;21.60;58.00;;;;;;5050593;28;19929;-66
2022/10/29 13:55:09;;;;;;;;;;;21.60;58.00;;;;;;5036230;28;19979;-68
2022/10/29 13:57:36;;;;;;;;;;;21.60;58.00;;;;;;5052656;28;19979;-67
2022/10/29 14:00:05;;;;;;;;;;;21.60;58.10;;;;;;5043868;28;20007;-72
2022/10/29 14:02:35;;;;;;;;;;;21.60;58.10;;;;;;5055785;28;20259;-68
2022/10/29 14:05:03;;;;;;;;;;;21.60;58.00;;;;;;5069655;28;20388;-70
2022/10/29 14:07:33;;;;;;;;;;;21.60;58.10;;;;;;5064268;28;19924;-67
2022/10/29 14:10:00;;;;;;;;;;;21.60;58.00;;;;;;5070380;28;20403;-70
2022/10/29 14:12:27;;;;;;;;;;;21.60;58.00;;;;;;5042513;28;19925;-67
2022/10/29 14:14:56;;;;;;;;;;;21.60;58.00;;;;;;5054920;28;20031;-66
2022/10/29 14:17:25;;;;;;;;;;;21.60;58.00;;;;;;5046824;28;19920;-65
2022/10/29 14:19:52;;;;;;;;;;;21.60;58.00;;;;;;5074638;28;20043;-67
2022/10/29 14:22:28;;;;;;;;;;;21.60;58.00;;;;;;5056508;28;20312;-67